createdAt,value
2019-03-01T00:02:12.968Z,19.20
2019-03-01T00:04:58.634Z,19.20
2019-03-01T00:07:45.785Z,19.20
2019-03-01T00:10:29.966Z,19.20
2019-03-01T00:13:16.264Z,19.20
2019-03-01T00:15:48.578Z,19.20
2019-03-01T00:18:48.067Z,19.20
2019-03-01T00:21:22.615Z,19.20
2019-03-01T00:24:00.728Z,19.10
2019-03-01T00:26:32.275Z,19.10
2019-03-01T00:29:19.399Z,19.10
2019-03-01T00:31:54.257Z,19.10
2019-03-01T00:34:40.132Z,19.10
2019-03-01T00:37:26.198Z,19.10
2019-03-01T00:39:57.966Z,19.10
2019-03-01T00:42:35.783Z,19.10
2019-03-01T00:45:03.839Z,19.10
2019-03-01T00:47:31.703Z,19.10
2019-03-01T00:49:59.572Z,19.10
2019-03-01T00:52:27.419Z,19.10
2019-03-01T00:54:55.266Z,19.10
2019-03-01T00:57:23.125Z,19.10
2019-03-01T00:59:51.283Z,19.00
2019-03-01T01:02:19.464Z,19.00
2019-03-01T01:04:47.316Z,19.00
2019-03-01T01:07:15.161Z,19.00
2019-03-01T01:09:43.263Z,19.00
2019-03-01T01:12:11.538Z,19.00
2019-03-01T01:14:39.384Z,19.00
2019-03-01T01:17:07.224Z,19.00
2019-03-01T01:19:35.083Z,19.00
2019-03-01T01:22:02.927Z,19.00
2019-03-01T01:24:30.791Z,19.00
2019-03-01T01:26:58.640Z,19.00
2019-03-01T01:29:26.804Z,18.90
2019-03-01T01:31:54.676Z,18.90
2019-03-01T01:34:22.819Z,18.90
2019-03-01T01:36:50.691Z,18.90
2019-03-01T01:39:18.540Z,18.90
2019-03-01T01:41:46.772Z,18.90
2019-03-01T01:44:14.617Z,18.90
2019-03-01T01:46:42.483Z,18.90
2019-03-01T01:49:10.651Z,18.90
2019-03-01T01:51:38.517Z,18.90
2019-03-01T01:54:06.359Z,18.90
2019-03-01T01:56:34.199Z,18.90
2019-03-01T01:59:02.319Z,18.90
2019-03-01T02:01:30.495Z,18.90
2019-03-01T02:03:58.343Z,18.90
2019-03-01T02:06:26.263Z,18.90
2019-03-01T02:08:54.175Z,18.90
2019-03-01T02:11:22.015Z,18.90
2019-03-01T02:13:49.851Z,18.80
2019-03-01T02:16:17.999Z,18.80
2019-03-01T02:18:45.847Z,18.80
2019-03-01T02:21:13.692Z,18.80
2019-03-01T02:23:41.555Z,18.80
2019-03-01T02:26:09.394Z,18.80
2019-03-01T02:28:38.058Z,18.80
2019-03-01T02:31:06.479Z,18.80
2019-03-01T02:33:34.599Z,18.80
2019-03-01T02:36:02.773Z,18.80
2019-03-01T02:38:30.953Z,18.80
2019-03-01T02:40:58.787Z,18.80
2019-03-01T02:43:26.655Z,18.80
2019-03-01T02:45:54.505Z,18.80
2019-03-01T02:48:22.366Z,18.80
2019-03-01T02:50:50.199Z,18.80
2019-03-01T02:53:18.065Z,18.70
2019-03-01T02:55:45.904Z,18.70
2019-03-01T02:58:13.779Z,18.70
2019-03-01T03:00:42.056Z,18.70
2019-03-01T03:03:09.935Z,18.70
2019-03-01T03:05:54.375Z,18.70
2019-03-01T03:08:22.544Z,18.70
2019-03-01T03:10:50.389Z,18.70
2019-03-01T03:13:18.329Z,18.70
2019-03-01T03:15:47.686Z,18.70
2019-03-01T03:18:15.555Z,18.70
2019-03-01T03:20:43.514Z,18.70
2019-03-01T03:23:11.546Z,18.70
2019-03-01T03:25:39.378Z,18.70
2019-03-01T03:28:07.251Z,18.70
2019-03-01T03:30:35.139Z,18.70
2019-03-01T03:33:03.050Z,18.70
2019-03-01T03:35:31.031Z,18.70
2019-03-01T03:37:59.191Z,18.60
2019-03-01T03:40:27.051Z,18.60
2019-03-01T03:42:54.896Z,18.60
2019-03-01T03:45:22.807Z,18.60
2019-03-01T03:47:50.649Z,18.60
2019-03-01T03:50:18.938Z,18.60
2019-03-01T03:52:46.788Z,18.60
2019-03-01T03:55:14.856Z,18.60
2019-03-01T03:57:42.696Z,18.60
2019-03-01T04:00:12.507Z,18.60
2019-03-01T04:02:40.352Z,18.60
2019-03-01T04:05:08.222Z,18.60
2019-03-01T04:07:36.456Z,18.60
2019-03-01T04:10:04.675Z,18.60
2019-03-01T04:12:32.589Z,18.60
2019-03-01T04:15:00.811Z,18.60
2019-03-01T04:17:28.943Z,18.60
2019-03-01T04:19:56.808Z,18.60
2019-03-01T04:22:24.652Z,18.60
2019-03-01T04:24:52.527Z,18.60
2019-03-01T04:27:20.369Z,18.60
2019-03-01T04:29:48.231Z,18.60
2019-03-01T04:32:16.145Z,18.60
2019-03-01T04:34:44.016Z,18.50
2019-03-01T04:37:11.936Z,18.60
2019-03-01T04:39:39.799Z,18.50
2019-03-01T04:42:07.639Z,18.50
2019-03-01T04:44:35.581Z,18.50
2019-03-01T04:47:03.851Z,18.50
2019-03-01T04:49:31.719Z,18.60
2019-03-01T04:51:59.894Z,18.50
2019-03-01T04:54:28.162Z,18.50
2019-03-01T04:56:56.331Z,18.50
2019-03-01T04:59:24.266Z,18.50
2019-03-01T05:01:52.372Z,18.50
2019-03-01T05:04:20.235Z,18.50
2019-03-01T05:06:48.075Z,18.50
2019-03-01T05:09:16.279Z,18.50
2019-03-01T05:11:44.149Z,18.50
2019-03-01T05:14:11.987Z,18.50
2019-03-01T05:16:40.184Z,18.50
2019-03-01T05:19:08.359Z,18.50
2019-03-01T05:21:36.199Z,18.50
2019-03-01T05:24:04.042Z,18.50
2019-03-01T05:26:31.880Z,18.50
2019-03-01T05:28:59.799Z,18.50
2019-03-01T05:31:27.639Z,18.50
2019-03-01T05:33:55.483Z,18.50
2019-03-01T05:36:23.636Z,18.50
2019-03-01T05:38:51.908Z,18.50
2019-03-01T05:41:20.076Z,18.50
2019-03-01T05:43:47.939Z,18.50
2019-03-01T05:46:16.116Z,18.50
2019-03-01T05:48:43.985Z,18.50
2019-03-01T05:51:11.860Z,18.50
2019-03-01T05:53:40.019Z,18.50
2019-03-01T05:56:07.864Z,18.50
2019-03-01T05:58:40.034Z,18.50
2019-03-01T06:01:16.552Z,18.50
2019-03-01T06:03:47.567Z,18.60
2019-03-01T06:06:16.924Z,18.60
2019-03-01T06:09:02.339Z,18.60
2019-03-01T06:11:36.511Z,18.60
2019-03-01T06:14:17.924Z,18.70
2019-03-01T06:17:01.155Z,18.70
2019-03-01T06:19:32.592Z,18.70
2019-03-01T06:22:18.426Z,18.80
2019-03-01T06:25:05.835Z,18.80
2019-03-01T06:27:42.191Z,18.80
2019-03-01T06:30:17.798Z,18.80
2019-03-01T06:32:53.442Z,18.80
2019-03-01T06:35:28.164Z,18.90
2019-03-01T06:38:40.540Z,18.90
2019-03-01T06:41:30.937Z,19.00
2019-03-01T06:44:05.131Z,19.10
2019-03-01T06:46:36.892Z,19.20
2019-03-01T06:49:24.213Z,19.30
2019-03-01T06:51:52.059Z,19.30
2019-03-01T06:54:19.910Z,19.30
2019-03-01T06:56:48.019Z,19.30
2019-03-01T06:59:15.864Z,19.40
2019-03-01T07:01:47.239Z,19.40
2019-03-01T07:04:16.427Z,19.50
2019-03-01T07:06:44.274Z,19.50
2019-03-01T07:09:12.153Z,19.50
2019-03-01T07:11:41.187Z,19.50
2019-03-01T07:14:09.050Z,19.60
2019-03-01T07:16:36.954Z,19.60
2019-03-01T07:19:04.795Z,19.60
2019-03-01T07:21:33.350Z,19.60
2019-03-01T07:24:01.218Z,19.60
2019-03-01T07:26:29.371Z,19.60
2019-03-01T07:28:57.220Z,19.60
2019-03-01T07:31:25.140Z,19.60
2019-03-01T07:33:52.979Z,19.60
2019-03-01T07:36:20.820Z,19.70
2019-03-01T07:38:49.019Z,19.70
2019-03-01T07:41:17.188Z,19.70
2019-03-01T07:43:45.047Z,19.80
2019-03-01T07:46:13.224Z,19.80
2019-03-01T07:48:41.087Z,19.80
2019-03-01T07:51:09.016Z,19.80
2019-03-01T07:53:41.800Z,19.80
2019-03-01T07:56:06.447Z,19.90
2019-03-01T07:58:34.603Z,19.90
2019-03-01T08:01:02.443Z,19.90
2019-03-01T08:03:30.646Z,19.70
2019-03-01T08:05:58.815Z,19.60
2019-03-01T08:08:26.987Z,19.50
2019-03-01T08:10:56.569Z,19.60
2019-03-01T08:13:26.653Z,19.80
2019-03-01T08:15:53.987Z,19.90
2019-03-01T08:18:21.979Z,19.90
2019-03-01T08:20:50.108Z,19.90
2019-03-01T08:23:17.955Z,19.90
2019-03-01T08:25:46.148Z,19.90
2019-03-01T08:28:13.991Z,19.90
2019-03-01T08:30:42.518Z,20.00
2019-03-01T08:33:11.416Z,20.00
2019-03-01T08:35:39.565Z,20.00
2019-03-01T08:38:07.855Z,20.00
2019-03-01T08:40:35.707Z,20.00
2019-03-01T08:43:03.548Z,20.00
2019-03-01T08:45:33.046Z,20.00
2019-03-01T08:48:00.955Z,20.00
2019-03-01T08:50:29.119Z,20.00
2019-03-01T08:52:56.954Z,20.00
2019-03-01T08:55:24.877Z,20.00
2019-03-01T08:57:52.719Z,20.00
2019-03-01T09:00:23.143Z,20.00
2019-03-01T09:02:52.749Z,20.00
2019-03-01T09:05:20.592Z,20.00
2019-03-01T09:07:48.439Z,19.90
2019-03-01T09:10:16.502Z,19.70
2019-03-01T09:12:44.351Z,19.70
2019-03-01T09:15:12.869Z,19.90
2019-03-01T09:17:40.740Z,19.90
2019-03-01T09:20:09.487Z,20.00
2019-03-01T09:22:37.324Z,20.10
2019-03-01T09:25:07.446Z,20.10
2019-03-01T09:27:35.027Z,20.20
2019-03-01T09:30:03.918Z,20.20
2019-03-01T09:32:33.855Z,20.20
2019-03-01T09:35:22.319Z,20.30
2019-03-01T09:37:50.168Z,20.30
2019-03-01T09:40:18.388Z,20.40
2019-03-01T09:42:47.475Z,20.40
2019-03-01T09:45:16.576Z,20.40
2019-03-01T09:47:44.419Z,20.50
2019-03-01T09:50:12.944Z,20.40
2019-03-01T09:52:40.791Z,20.40
2019-03-01T09:55:08.658Z,20.40
2019-03-01T09:57:36.829Z,20.40
2019-03-01T10:00:05.967Z,20.40
2019-03-01T10:02:33.806Z,20.50
2019-03-01T10:05:01.755Z,20.40
2019-03-01T10:07:29.591Z,20.30
2019-03-01T10:09:58.236Z,20.30
2019-03-01T10:12:26.484Z,20.40
2019-03-01T10:14:54.759Z,20.30
2019-03-01T10:17:22.688Z,20.20
2019-03-01T10:19:50.530Z,20.20
2019-03-01T10:22:18.375Z,20.10
2019-03-01T10:24:46.531Z,20.10
2019-03-01T10:27:14.451Z,20.10
2019-03-01T10:29:42.295Z,20.10
2019-03-01T10:32:10.140Z,20.10
2019-03-01T10:34:37.983Z,20.10
2019-03-01T10:37:05.926Z,20.10
2019-03-01T10:39:33.767Z,20.10
2019-03-01T10:42:01.901Z,20.20
2019-03-01T10:44:30.077Z,20.10
2019-03-01T10:46:59.004Z,20.20
2019-03-01T10:49:27.540Z,20.10
2019-03-01T10:51:55.411Z,20.10
2019-03-01T10:54:23.587Z,20.20
2019-03-01T10:56:51.781Z,20.20
2019-03-01T10:59:19.950Z,20.30
2019-03-01T11:01:48.111Z,20.20
2019-03-01T11:04:16.309Z,20.30
2019-03-01T11:06:44.235Z,20.30
2019-03-01T11:09:12.426Z,20.30
2019-03-01T11:11:41.311Z,20.30
2019-03-01T11:14:09.300Z,20.30
2019-03-01T11:16:37.480Z,20.30
2019-03-01T11:19:05.627Z,20.30
2019-03-01T11:21:33.820Z,20.30
2019-03-01T11:24:02.284Z,20.30
2019-03-01T11:26:30.147Z,20.20
2019-03-01T11:28:58.067Z,20.30
2019-03-01T11:31:26.287Z,20.30
2019-03-01T11:33:54.133Z,20.20
2019-03-01T11:36:22.000Z,20.20
2019-03-01T11:38:50.226Z,20.20
2019-03-01T11:41:18.987Z,20.20
2019-03-01T11:43:47.155Z,20.20
2019-03-01T11:46:15.328Z,20.20
2019-03-01T11:48:43.503Z,20.20
2019-03-01T11:51:11.679Z,20.20
2019-03-01T11:53:39.524Z,20.20
2019-03-01T11:56:07.721Z,20.20
2019-03-01T11:58:35.567Z,20.10
2019-03-01T12:01:03.416Z,20.10
2019-03-01T12:03:31.624Z,20.10
2019-03-01T12:05:59.468Z,20.10
2019-03-01T12:08:27.309Z,20.10
2019-03-01T12:10:55.231Z,20.10
2019-03-01T12:13:23.087Z,20.10
2019-03-01T12:15:50.926Z,20.10
2019-03-01T12:18:18.771Z,20.10
2019-03-01T12:20:46.607Z,20.10
2019-03-01T12:23:14.804Z,20.00
2019-03-01T12:25:43.031Z,20.00
2019-03-01T12:28:11.207Z,20.00
2019-03-01T12:30:39.047Z,20.00
2019-03-01T12:33:06.915Z,19.90
2019-03-01T12:35:34.783Z,19.90
2019-03-01T12:38:02.991Z,19.90
2019-03-01T12:40:30.929Z,19.90
2019-03-01T12:42:58.888Z,19.90
2019-03-01T12:45:26.880Z,19.90
2019-03-01T12:47:54.834Z,19.90
2019-03-01T12:50:22.679Z,19.90
2019-03-01T12:52:50.547Z,19.90
2019-03-01T12:55:19.475Z,19.90
2019-03-01T12:57:47.653Z,19.90
2019-03-01T13:00:17.087Z,19.90
2019-03-01T13:02:44.955Z,19.90
2019-03-01T13:05:13.092Z,19.90
2019-03-01T13:07:41.264Z,19.90
2019-03-01T13:10:11.180Z,19.90
2019-03-01T13:12:39.055Z,19.90
2019-03-01T13:15:10.611Z,20.00
2019-03-01T13:17:38.156Z,20.10
2019-03-01T13:20:07.863Z,20.10
2019-03-01T13:22:36.144Z,20.10
2019-03-01T13:25:04.316Z,20.10
2019-03-01T13:27:32.203Z,20.00
2019-03-01T13:30:00.043Z,20.10
2019-03-01T13:32:27.921Z,20.10
2019-03-01T13:34:55.792Z,20.10
2019-03-01T13:37:23.735Z,20.10
2019-03-01T13:39:51.580Z,20.10
2019-03-01T13:42:19.787Z,20.10
2019-03-01T13:44:48.015Z,20.10
2019-03-01T13:47:15.971Z,20.10
2019-03-01T13:49:44.103Z,20.10
2019-03-01T13:52:12.398Z,20.10
2019-03-01T13:54:42.374Z,20.00
2019-03-01T13:57:11.496Z,20.00
2019-03-01T13:59:40.337Z,20.10
2019-03-01T14:02:09.086Z,20.10
2019-03-01T14:04:40.268Z,20.10
2019-03-01T14:07:06.492Z,20.20
2019-03-01T14:09:34.521Z,20.20
2019-03-01T14:12:02.788Z,20.20
2019-03-01T14:14:30.656Z,20.20
2019-03-01T14:16:58.499Z,20.20
2019-03-01T14:19:26.693Z,20.20
2019-03-01T14:21:54.858Z,20.30
2019-03-01T14:24:26.026Z,20.20
2019-03-01T14:26:53.932Z,20.20
2019-03-01T14:29:22.863Z,20.20
2019-03-01T14:31:51.139Z,20.20
2019-03-01T14:34:19.311Z,20.30
2019-03-01T14:36:47.151Z,20.30
2019-03-01T14:39:16.264Z,20.30
2019-03-01T14:41:44.452Z,20.20
2019-03-01T14:44:12.405Z,20.20
2019-03-01T14:46:40.593Z,20.20
2019-03-01T14:49:08.447Z,20.30
2019-03-01T14:51:36.287Z,20.30
2019-03-01T14:54:07.125Z,20.30
2019-03-01T14:56:36.251Z,20.30
2019-03-01T14:59:13.390Z,20.30
2019-03-01T15:01:47.139Z,20.30
2019-03-01T15:04:15.012Z,20.30
2019-03-01T15:06:42.848Z,20.20
2019-03-01T15:09:10.738Z,20.10
2019-03-01T15:11:41.111Z,20.30
2019-03-01T15:14:12.101Z,20.30
2019-03-01T15:16:39.349Z,20.30
2019-03-01T15:19:08.134Z,20.20
2019-03-01T15:21:37.545Z,20.20
2019-03-01T15:24:06.540Z,20.20
2019-03-01T15:26:34.379Z,20.20
2019-03-01T15:29:02.585Z,20.20
2019-03-01T15:31:30.751Z,20.20
2019-03-01T15:33:58.630Z,20.20
2019-03-01T15:36:26.563Z,20.20
2019-03-01T15:38:54.407Z,20.20
2019-03-01T15:41:22.528Z,20.20
2019-03-01T15:43:50.700Z,20.20
2019-03-01T15:46:18.539Z,20.20
2019-03-01T15:48:46.383Z,20.20
2019-03-01T15:51:14.231Z,20.20
2019-03-01T15:53:42.073Z,20.20
2019-03-01T15:56:09.917Z,20.20
2019-03-01T15:58:37.760Z,20.20
2019-03-01T16:01:10.897Z,20.20
2019-03-01T16:03:37.828Z,20.20
2019-03-01T16:06:10.180Z,20.20
2019-03-01T16:08:36.947Z,20.20
2019-03-01T16:11:04.995Z,20.10
2019-03-01T16:13:32.827Z,20.10
2019-03-01T16:16:00.670Z,20.10
2019-03-01T16:18:28.516Z,20.10
2019-03-01T16:20:56.357Z,20.00
2019-03-01T16:23:24.204Z,20.10
2019-03-01T16:25:53.125Z,20.10
2019-03-01T16:28:21.988Z,20.00
2019-03-01T16:33:32.140Z,20.00
2019-03-01T16:36:01.100Z,19.90
2019-03-01T16:38:29.104Z,19.90
2019-03-01T16:40:56.956Z,19.90
2019-03-01T16:43:25.484Z,19.90
2019-03-01T16:45:56.393Z,19.90
2019-03-01T16:48:23.981Z,20.00
2019-03-01T16:50:51.830Z,20.00
2019-03-01T16:53:19.684Z,20.00
2019-03-01T16:55:49.272Z,20.00
2019-03-01T16:58:17.348Z,20.00
2019-03-01T17:00:45.204Z,20.00
2019-03-01T17:03:16.772Z,20.10
2019-03-01T17:05:43.484Z,20.10
2019-03-01T17:08:11.728Z,20.10
2019-03-01T17:10:39.580Z,20.10
2019-03-01T17:13:07.768Z,20.10
2019-03-01T17:15:35.615Z,20.10
2019-03-01T17:18:03.489Z,20.20
2019-03-01T17:21:27.690Z,20.30
2019-03-01T17:23:55.540Z,20.30
2019-03-01T17:26:26.261Z,20.30
2019-03-01T17:28:52.987Z,20.30
2019-03-01T17:31:23.139Z,20.30
2019-03-01T17:33:51.132Z,20.40
2019-03-01T17:36:19.008Z,20.40
2019-03-01T17:38:47.253Z,20.40
2019-03-01T17:41:15.127Z,20.40
2019-03-01T17:43:42.992Z,20.40
2019-03-01T17:46:11.165Z,20.40
2019-03-01T17:48:39.072Z,20.40
2019-03-01T17:51:06.950Z,20.30
2019-03-01T17:53:34.800Z,20.40
2019-03-01T17:56:02.768Z,20.40
2019-03-01T17:58:31.516Z,20.40
2019-03-01T18:01:02.942Z,20.40
2019-03-01T18:03:30.190Z,20.40
2019-03-01T18:05:58.242Z,20.30
2019-03-01T18:08:26.124Z,20.30
2019-03-01T18:10:54.428Z,20.30
2019-03-01T18:13:22.629Z,20.20
2019-03-01T18:15:50.608Z,20.30
2019-03-01T18:18:18.529Z,20.30
2019-03-01T18:20:46.416Z,20.30
2019-03-01T18:23:14.685Z,20.20
2019-03-01T18:25:42.639Z,20.20
2019-03-01T18:28:10.847Z,20.20
2019-03-01T18:30:38.704Z,20.20
2019-03-01T18:33:06.892Z,20.20
2019-03-01T18:35:34.761Z,20.20
2019-03-01T18:38:02.608Z,20.30
2019-03-01T18:40:30.772Z,20.30
2019-03-01T18:42:58.720Z,20.20
2019-03-01T18:45:26.596Z,20.30
2019-03-01T18:47:54.505Z,20.30
2019-03-01T18:50:23.953Z,20.30
2019-03-01T18:52:53.200Z,20.30
2019-03-01T18:55:22.196Z,20.30
2019-03-01T18:57:50.199Z,20.40
2019-03-01T19:00:19.647Z,20.30
2019-03-01T19:02:47.616Z,20.30
2019-03-01T19:05:15.548Z,20.30
2019-03-01T19:07:43.523Z,20.30
2019-03-01T19:10:11.490Z,20.30
2019-03-01T19:12:39.411Z,20.30
2019-03-01T19:15:07.727Z,20.30
2019-03-01T19:17:36.770Z,20.30
2019-03-01T19:20:06.616Z,20.30
2019-03-01T19:22:34.864Z,20.30
2019-03-01T19:25:03.112Z,20.30
2019-03-01T19:27:31.284Z,20.30
2019-03-01T19:29:59.249Z,20.20
2019-03-01T19:32:27.609Z,20.20
2019-03-01T19:34:55.552Z,20.20
2019-03-01T19:37:23.432Z,20.20
2019-03-01T19:39:51.283Z,20.20
2019-03-01T19:42:19.169Z,20.20
2019-03-01T19:44:47.033Z,20.20
2019-03-01T19:47:14.889Z,20.10
2019-03-01T19:49:45.281Z,20.10
2019-03-01T19:52:13.001Z,20.10
2019-03-01T19:54:41.413Z,20.10
2019-03-01T19:57:09.343Z,20.10
2019-03-01T19:59:37.573Z,20.10
2019-03-01T20:02:05.498Z,20.20
2019-03-01T20:04:33.369Z,20.20
2019-03-01T20:07:01.487Z,20.30
2019-03-01T20:09:29.512Z,20.30
2019-03-01T20:11:59.230Z,20.30
2019-03-01T20:14:30.372Z,20.30
2019-03-01T20:16:58.140Z,20.30
2019-03-01T20:19:26.459Z,20.30
2019-03-01T20:21:54.388Z,20.30
2019-03-01T20:24:22.560Z,20.30
2019-03-01T20:26:50.563Z,20.30
2019-03-01T20:29:18.568Z,20.20
2019-03-01T20:31:46.420Z,20.30
2019-03-01T20:34:14.280Z,20.30
2019-03-01T20:36:42.133Z,20.30
2019-03-01T20:39:11.668Z,20.20
2019-03-01T20:41:46.110Z,20.20
2019-03-01T20:44:09.780Z,20.20
2019-03-01T20:46:39.997Z,20.20
2019-03-01T20:49:07.588Z,20.20
2019-03-01T20:51:35.534Z,20.20
2019-03-01T20:54:03.388Z,20.20
2019-03-01T20:56:31.280Z,20.20
2019-03-01T20:58:59.547Z,20.10
2019-03-01T21:01:27.797Z,20.10
2019-03-01T21:03:55.831Z,20.10
2019-03-01T21:06:24.038Z,20.00
2019-03-01T21:08:51.895Z,20.00
2019-03-01T21:11:21.782Z,20.10
2019-03-01T21:13:49.777Z,20.10
2019-03-01T21:16:17.753Z,20.10
2019-03-01T21:18:45.616Z,20.10
2019-03-01T21:21:13.471Z,20.10
2019-03-01T21:23:41.324Z,20.20
2019-03-01T21:26:12.044Z,20.20
2019-03-01T21:28:39.060Z,20.20
2019-03-01T21:31:07.361Z,20.20
2019-03-01T21:33:35.236Z,20.20
2019-03-01T21:36:03.371Z,20.20
2019-03-01T21:38:31.252Z,20.20
2019-03-01T21:40:59.120Z,20.20
2019-03-01T21:43:27.016Z,20.20
2019-03-01T21:45:55.567Z,20.20
2019-03-01T21:48:25.235Z,20.20
2019-03-01T21:50:54.309Z,20.20
2019-03-01T21:53:22.428Z,20.20
2019-03-01T21:55:50.536Z,20.20
2019-03-01T21:58:18.467Z,20.10
2019-03-01T22:00:46.383Z,20.10
2019-03-01T22:03:14.251Z,20.10
2019-03-01T22:05:45.194Z,20.10
2019-03-01T22:08:12.967Z,20.10
2019-03-01T22:10:41.736Z,20.10
2019-03-01T22:13:09.621Z,20.10
2019-03-01T22:15:37.471Z,20.10
2019-03-01T22:18:05.324Z,20.10
2019-03-01T22:20:33.225Z,20.20
2019-03-01T22:23:01.436Z,20.20
2019-03-01T22:25:29.374Z,20.10
2019-03-01T22:27:57.594Z,20.10
2019-03-01T22:30:27.655Z,19.90
2019-03-01T22:32:55.864Z,19.80
2019-03-01T22:35:24.056Z,19.80
2019-03-01T22:37:51.940Z,19.70
2019-03-01T22:40:20.080Z,19.70
2019-03-01T22:42:49.675Z,19.70
2019-03-01T22:45:17.532Z,19.70
2019-03-01T22:47:45.407Z,19.60
2019-03-01T22:50:13.856Z,19.60
2019-03-01T22:52:41.775Z,19.60
2019-03-01T22:55:10.197Z,19.60
2019-03-01T22:57:38.039Z,19.60
2019-03-01T23:00:07.676Z,19.60
2019-03-01T23:02:35.604Z,19.60
2019-03-01T23:05:05.007Z,19.50
2019-03-01T23:07:33.368Z,19.50
2019-03-01T23:10:01.290Z,19.50
2019-03-01T23:12:29.509Z,19.50
2019-03-01T23:14:57.365Z,19.50
2019-03-01T23:17:27.531Z,19.50
2019-03-01T23:19:54.779Z,19.50
2019-03-01T23:22:22.638Z,19.50
2019-03-01T23:24:50.964Z,19.40
2019-03-01T23:27:18.816Z,19.40
2019-03-01T23:29:46.664Z,19.40
2019-03-01T23:32:15.524Z,19.40
2019-03-01T23:34:44.397Z,19.40
2019-03-01T23:37:12.253Z,19.40
2019-03-01T23:39:40.432Z,19.40
2019-03-01T23:42:08.281Z,19.40
2019-03-01T23:44:38.705Z,19.40
2019-03-01T23:47:05.713Z,19.40
2019-03-01T23:49:33.563Z,19.40
2019-03-01T23:52:01.713Z,19.40
2019-03-01T23:54:29.564Z,19.30
2019-03-01T23:56:57.503Z,19.30
2019-03-01T23:59:26.619Z,19.30
